Buenos Aires, Argentina

9:33 PM ART on January 21, 2017 (GMT -0300)
Recoleta | | Change Station

Elev 82 ft 34.59 °S, 58.39 °W | Updated 12 minutes ago

Clear
Clear
84.2 °F
Feels Like 93 °F
N
1.6
Wind Variable Wind from South
Gusts 2.2 mph

Today
High -- | Low -- °F
--% Chance of Precip.
Yesterday
High -- | Low -- °F
Precip. -- in
Pressure 29.92 in
Visibility -9999.0 miles
Clouds
Heat Index 93 °F
Dew Point 76 °F
Humidity 77%
Rainfall 0.00 in
Snow Depth Not available.
6:02 AM 8:06 PM
Waning Crescent, 31% visible
METAR SABE 220000Z 01005KT CAVOK 29/24 Q1013
Pressure 29.92 in
Visibility -9999.0 miles
Clouds
Heat Index 93 °F
Dew Point 76 °F
Humidity 77%
Rainfall 0.00 in
Snow Depth Not available.
6:02 AM 8:06 PM
Waning Crescent, 31% visible
METAR SABE 220000Z 01005KT CAVOK 29/24 Q1013

Get Your Daily Forecast Email!

Thanks for signing up!

Be on the lookout for a verification email in your inbox.

You'll start receiving the daily forecast at 8 AM.

×

10-Day Weather Forecast

Almanac

Astronomy

Jan. 21, 2017 Rise Set
Actual Time
Civil Twilight
Nautical Twilight
Astronomical Twilight
Moon
Length of Visible Light
Length of Day
Tomorrow will be .
, % of the Moon is Illuminated

Today's Extremes

Country Highs Country Lows

Community

WunderPhotos

Upload Photos

1,962,540 photos uploaded!

WunderBlog® & News

Nearby

Air Quality

  Air Quality AQ Index Pollutant
Not available.

Snow Depth

Station Depth Elevation

Earthquake Activity

City Distance Mag. Time & Date
Minimum magnitude displayed is 2.5.

Coastal Water Temperatures

Place Temperature

Stations

Nearby Weather Stations

Station Location Temp. Windchill Dew Point Humidity Wind Precip. Elev Updated Type